sensor_id;sensor_type;location;lat;lon;timestamp;temperature;humidity
6627;DHT22;3349;49.830;8.748;2022-10-16T00:00:30;15.40;99.90
6627;DHT22;3349;49.830;8.748;2022-10-16T00:02:58;15.40;99.90
6627;DHT22;3349;49.830;8.748;2022-10-16T00:05:24;15.40;99.90
6627;DHT22;3349;49.830;8.748;2022-10-16T00:07:51;15.30;99.90
6627;DHT22;3349;49.830;8.748;2022-10-16T00:10:17;15.30;99.90
6627;DHT22;3349;49.830;8.748;2022-10-16T00:12:44;15.30;99.90
6627;DHT22;3349;49.830;8.748;2022-10-16T00:15:12;15.30;99.90
6627;DHT22;3349;49.830;8.748;2022-10-16T00:17:39;15.20;99.90
6627;DHT22;3349;49.830;8.748;2022-10-16T00:20:06;15.20;99.90
6627;DHT22;3349;49.830;8.748;2022-10-16T00:22:33;15.20;99.90
6627;DHT22;3349;49.830;8.748;2022-10-16T00:25:00;15.20;99.90
6627;DHT22;3349;49.830;8.748;2022-10-16T00:27:27;15.20;99.90
6627;DHT22;3349;49.830;8.748;2022-10-16T00:29:53;15.20;99.90
6627;DHT22;3349;49.830;8.748;2022-10-16T00:32:21;15.20;99.90
6627;DHT22;3349;49.830;8.748;2022-10-16T00:34:48;15.20;99.90
6627;DHT22;3349;49.830;8.748;2022-10-16T00:37:15;15.20;99.90
6627;DHT22;3349;49.830;8.748;2022-10-16T00:39:42;15.10;99.90
6627;DHT22;3349;49.830;8.748;2022-10-16T00:42:12;15.10;99.90
6627;DHT22;3349;49.830;8.748;2022-10-16T00:44:44;15.10;99.90
6627;DHT22;3349;49.830;8.748;2022-10-16T00:47:14;15.10;99.90
6627;DHT22;3349;49.830;8.748;2022-10-16T00:49:43;15.10;99.90
6627;DHT22;3349;49.830;8.748;2022-10-16T00:52:10;15.10;99.90
6627;DHT22;3349;49.830;8.748;2022-10-16T00:54:37;15.00;99.90
6627;DHT22;3349;49.830;8.748;2022-10-16T00:57:05;15.00;99.90
6627;DHT22;3349;49.830;8.748;2022-10-16T00:59:35;15.00;99.90
6627;DHT22;3349;49.830;8.748;2022-10-16T01:02:04;15.00;99.90
6627;DHT22;3349;49.830;8.748;2022-10-16T01:04:34;15.00;99.90
6627;DHT22;3349;49.830;8.748;2022-10-16T01:07:09;15.00;99.90
6627;DHT22;3349;49.830;8.748;2022-10-16T01:09:43;15.00;99.90
6627;DHT22;3349;49.830;8.748;2022-10-16T01:12:16;14.90;99.90
6627;DHT22;3349;49.830;8.748;2022-10-16T01:14:51;14.90;99.90
6627;DHT22;3349;49.830;8.748;2022-10-16T01:17:23;14.90;99.90
6627;DHT22;3349;49.830;8.748;2022-10-16T01:20:02;14.90;99.90
6627;DHT22;3349;49.830;8.748;2022-10-16T01:22:43;14.90;99.90
6627;DHT22;3349;49.830;8.748;2022-10-16T01:25:20;14.90;99.90
6627;DHT22;3349;49.830;8.748;2022-10-16T01:27:50;14.90;99.90
6627;DHT22;3349;49.830;8.748;2022-10-16T01:30:22;14.90;99.90
6627;DHT22;3349;49.830;8.748;2022-10-16T01:32:52;14.90;99.90
6627;DHT22;3349;49.830;8.748;2022-10-16T01:35:25;14.90;99.90
6627;DHT22;3349;49.830;8.748;2022-10-16T01:37:55;14.90;99.90
6627;DHT22;3349;49.830;8.748;2022-10-16T01:40:26;14.90;99.90
6627;DHT22;3349;49.830;8.748;2022-10-16T01:42:59;15.00;99.90
6627;DHT22;3349;49.830;8.748;2022-10-16T01:45:28;15.00;99.90
6627;DHT22;3349;49.830;8.748;2022-10-16T01:47:57;15.00;99.90
6627;DHT22;3349;49.830;8.748;2022-10-16T01:50:26;15.00;99.90
6627;DHT22;3349;49.830;8.748;2022-10-16T01:52:54;15.00;99.90
6627;DHT22;3349;49.830;8.748;2022-10-16T01:55:26;15.00;99.90
6627;DHT22;3349;49.830;8.748;2022-10-16T01:57:58;15.00;99.90
6627;DHT22;3349;49.830;8.748;2022-10-16T02:00:26;15.00;99.90
6627;DHT22;3349;49.830;8.748;2022-10-16T02:02:55;15.00;99.90
6627;DHT22;3349;49.830;8.748;2022-10-16T02:05:27;15.00;99.90
6627;DHT22;3349;49.830;8.748;2022-10-16T02:07:54;15.10;99.90
6627;DHT22;3349;49.830;8.748;2022-10-16T02:10:22;15.20;99.90
6627;DHT22;3349;49.830;8.748;2022-10-16T02:12:55;15.20;99.90
6627;DHT22;3349;49.830;8.748;2022-10-16T02:15:24;15.30;99.90
6627;DHT22;3349;49.830;8.748;2022-10-16T02:17:51;15.30;99.90
6627;DHT22;3349;49.830;8.748;2022-10-16T02:20:20;15.30;99.90
6627;DHT22;3349;49.830;8.748;2022-10-16T02:22:50;15.30;99.90
6627;DHT22;3349;49.830;8.748;2022-10-16T02:25:22;15.30;99.90
6627;DHT22;3349;49.830;8.748;2022-10-16T02:27:55;15.30;99.90
6627;DHT22;3349;49.830;8.748;2022-10-16T02:30:27;15.30;99.90
6627;DHT22;3349;49.830;8.748;2022-10-16T02:32:57;15.20;99.90
6627;DHT22;3349;49.830;8.748;2022-10-16T02:35:26;15.20;99.90
6627;DHT22;3349;49.830;8.748;2022-10-16T02:37:53;15.20;99.90
6627;DHT22;3349;49.830;8.748;2022-10-16T02:40:21;15.20;99.90
6627;DHT22;3349;49.830;8.748;2022-10-16T02:42:51;15.20;99.90
6627;DHT22;3349;49.830;8.748;2022-10-16T02:45:18;15.10;99.90
6627;DHT22;3349;49.830;8.748;2022-10-16T02:47:46;15.10;99.90
6627;DHT22;3349;49.830;8.748;2022-10-16T02:50:13;15.10;99.90
6627;DHT22;3349;49.830;8.748;2022-10-16T02:52:40;15.00;99.90
6627;DHT22;3349;49.830;8.748;2022-10-16T02:55:07;15.00;99.90
6627;DHT22;3349;49.830;8.748;2022-10-16T02:57:34;15.00;99.90
6627;DHT22;3349;49.830;8.748;2022-10-16T03:00:02;15.00;99.90
6627;DHT22;3349;49.830;8.748;2022-10-16T03:02:29;14.90;99.90
6627;DHT22;3349;49.830;8.748;2022-10-16T03:04:57;14.90;99.90
6627;DHT22;3349;49.830;8.748;2022-10-16T03:07:24;15.00;99.90
6627;DHT22;3349;49.830;8.748;2022-10-16T03:09:51;14.90;99.90
6627;DHT22;3349;49.830;8.748;2022-10-16T03:12:18;14.90;99.90
6627;DHT22;3349;49.830;8.748;2022-10-16T03:14:44;15.00;99.90
6627;DHT22;3349;49.830;8.748;2022-10-16T03:17:11;15.00;99.90
6627;DHT22;3349;49.830;8.748;2022-10-16T03:19:38;15.00;99.90
6627;DHT22;3349;49.830;8.748;2022-10-16T03:22:06;15.00;99.90
6627;DHT22;3349;49.830;8.748;2022-10-16T03:24:33;15.00;99.90
6627;DHT22;3349;49.830;8.748;2022-10-16T03:27:00;15.00;99.90
6627;DHT22;3349;49.830;8.748;2022-10-16T03:29:27;15.00;99.90
6627;DHT22;3349;49.830;8.748;2022-10-16T03:31:54;15.00;99.90
6627;DHT22;3349;49.830;8.748;2022-10-16T03:34:21;15.00;99.90
6627;DHT22;3349;49.830;8.748;2022-10-16T03:36:48;15.00;99.90
6627;DHT22;3349;49.830;8.748;2022-10-16T03:39:16;15.00;99.90
6627;DHT22;3349;49.830;8.748;2022-10-16T03:41:43;15.00;99.90
6627;DHT22;3349;49.830;8.748;2022-10-16T03:44:11;15.00;99.90
6627;DHT22;3349;49.830;8.748;2022-10-16T03:46:38;15.00;99.90
6627;DHT22;3349;49.830;8.748;2022-10-16T03:49:05;15.00;99.90
6627;DHT22;3349;49.830;8.748;2022-10-16T03:51:32;15.00;99.90
6627;DHT22;3349;49.830;8.748;2022-10-16T03:53:58;15.00;99.90
6627;DHT22;3349;49.830;8.748;2022-10-16T03:56:26;15.00;99.90
6627;DHT22;3349;49.830;8.748;2022-10-16T03:58:53;15.00;99.90
6627;DHT22;3349;49.830;8.748;2022-10-16T04:01:20;15.00;99.90
6627;DHT22;3349;49.830;8.748;2022-10-16T04:03:47;15.00;99.90
6627;DHT22;3349;49.830;8.748;2022-10-16T04:06:13;15.00;99.90
6627;DHT22;3349;49.830;8.748;2022-10-16T04:08:42;15.00;99.90
6627;DHT22;3349;49.830;8.748;2022-10-16T04:11:09;15.00;99.90
6627;DHT22;3349;49.830;8.748;2022-10-16T04:13:37;15.00;99.90
6627;DHT22;3349;49.830;8.748;2022-10-16T04:16:04;15.00;99.90
6627;DHT22;3349;49.830;8.748;2022-10-16T04:18:30;15.00;99.90
6627;DHT22;3349;49.830;8.748;2022-10-16T04:21:02;15.00;99.90
6627;DHT22;3349;49.830;8.748;2022-10-16T04:23:29;15.00;99.90
6627;DHT22;3349;49.830;8.748;2022-10-16T04:25:56;15.00;99.90
6627;DHT22;3349;49.830;8.748;2022-10-16T04:28:23;15.00;99.90
6627;DHT22;3349;49.830;8.748;2022-10-16T04:30:51;15.00;99.90
6627;DHT22;3349;49.830;8.748;2022-10-16T04:33:18;15.00;99.90
6627;DHT22;3349;49.830;8.748;2022-10-16T04:35:45;15.00;99.90
6627;DHT22;3349;49.830;8.748;2022-10-16T04:38:11;14.90;99.90
6627;DHT22;3349;49.830;8.748;2022-10-16T04:40:38;14.90;99.90
6627;DHT22;3349;49.830;8.748;2022-10-16T04:43:05;14.90;99.90
6627;DHT22;3349;49.830;8.748;2022-10-16T04:45:32;14.90;99.90
6627;DHT22;3349;49.830;8.748;2022-10-16T04:48:00;14.90;99.90
6627;DHT22;3349;49.830;8.748;2022-10-16T04:50:27;14.80;99.90
6627;DHT22;3349;49.830;8.748;2022-10-16T04:52:54;14.80;99.90
6627;DHT22;3349;49.830;8.748;2022-10-16T04:55:21;14.80;99.90
6627;DHT22;3349;49.830;8.748;2022-10-16T04:57:47;14.80;99.90
6627;DHT22;3349;49.830;8.748;2022-10-16T05:00:15;14.70;99.90
6627;DHT22;3349;49.830;8.748;2022-10-16T05:02:42;14.70;99.90
6627;DHT22;3349;49.830;8.748;2022-10-16T05:05:10;14.60;99.90
6627;DHT22;3349;49.830;8.748;2022-10-16T05:07:37;14.60;99.90
6627;DHT22;3349;49.830;8.748;2022-10-16T05:10:04;14.60;99.90
6627;DHT22;3349;49.830;8.748;2022-10-16T05:12:31;14.60;99.90
6627;DHT22;3349;49.830;8.748;2022-10-16T05:14:58;14.50;99.90
6627;DHT22;3349;49.830;8.748;2022-10-16T05:17:25;14.50;99.90
6627;DHT22;3349;49.830;8.748;2022-10-16T05:19:52;14.50;99.90
6627;DHT22;3349;49.830;8.748;2022-10-16T05:22:21;14.40;99.90
6627;DHT22;3349;49.830;8.748;2022-10-16T05:24:47;14.50;99.90
6627;DHT22;3349;49.830;8.748;2022-10-16T05:27:14;14.40;99.90
6627;DHT22;3349;49.830;8.748;2022-10-16T05:29:44;14.50;99.90
6627;DHT22;3349;49.830;8.748;2022-10-16T05:32:11;14.50;99.90
6627;DHT22;3349;49.830;8.748;2022-10-16T05:34:38;14.50;99.90
6627;DHT22;3349;49.830;8.748;2022-10-16T05:37:05;14.50;99.90
6627;DHT22;3349;49.830;8.748;2022-10-16T05:39:33;14.50;99.90
6627;DHT22;3349;49.830;8.748;2022-10-16T05:42:00;14.50;99.90
6627;DHT22;3349;49.830;8.748;2022-10-16T05:44:26;14.40;99.90
6627;DHT22;3349;49.830;8.748;2022-10-16T05:46:53;14.40;99.90
6627;DHT22;3349;49.830;8.748;2022-10-16T05:49:20;14.40;99.90
6627;DHT22;3349;49.830;8.748;2022-10-16T05:51:47;14.40;99.90
6627;DHT22;3349;49.830;8.748;2022-10-16T05:54:13;14.40;99.90
6627;DHT22;3349;49.830;8.748;2022-10-16T05:56:42;14.40;99.90
6627;DHT22;3349;49.830;8.748;2022-10-16T05:59:09;14.40;99.90
6627;DHT22;3349;49.830;8.748;2022-10-16T06:01:35;14.40;99.90
6627;DHT22;3349;49.830;8.748;2022-10-16T06:04:02;14.40;99.90
6627;DHT22;3349;49.830;8.748;2022-10-16T06:06:29;14.50;99.90
6627;DHT22;3349;49.830;8.748;2022-10-16T06:08:57;14.50;99.90
6627;DHT22;3349;49.830;8.748;2022-10-16T06:11:26;14.50;99.90
6627;DHT22;3349;49.830;8.748;2022-10-16T06:13:56;14.50;99.90
6627;DHT22;3349;49.830;8.748;2022-10-16T06:16:24;14.50;99.90
6627;DHT22;3349;49.830;8.748;2022-10-16T06:18:52;14.60;99.90
6627;DHT22;3349;49.830;8.748;2022-10-16T06:21:20;14.60;99.90
6627;DHT22;3349;49.830;8.748;2022-10-16T06:23:48;14.60;99.90
6627;DHT22;3349;49.830;8.748;2022-10-16T06:26:16;14.60;99.90
6627;DHT22;3349;49.830;8.748;2022-10-16T06:28:43;14.60;99.90
6627;DHT22;3349;49.830;8.748;2022-10-16T06:31:12;14.70;99.90
6627;DHT22;3349;49.830;8.748;2022-10-16T06:33:40;14.70;99.90
6627;DHT22;3349;49.830;8.748;2022-10-16T06:36:08;14.70;99.90
6627;DHT22;3349;49.830;8.748;2022-10-16T06:38:36;14.70;99.90
6627;DHT22;3349;49.830;8.748;2022-10-16T06:41:04;14.80;99.90
6627;DHT22;3349;49.830;8.748;2022-10-16T06:43:31;14.80;99.90
6627;DHT22;3349;49.830;8.748;2022-10-16T06:46:01;14.80;99.90
6627;DHT22;3349;49.830;8.748;2022-10-16T06:48:30;14.90;99.90
6627;DHT22;3349;49.830;8.748;2022-10-16T06:50:58;14.90;99.90
6627;DHT22;3349;49.830;8.748;2022-10-16T06:53:26;14.90;99.90
6627;DHT22;3349;49.830;8.748;2022-10-16T06:55:54;15.00;99.90
6627;DHT22;3349;49.830;8.748;2022-10-16T06:58:21;15.00;99.90
6627;DHT22;3349;49.830;8.748;2022-10-16T07:00:48;15.10;99.90
6627;DHT22;3349;49.830;8.748;2022-10-16T07:03:15;15.10;99.90
6627;DHT22;3349;49.830;8.748;2022-10-16T07:05:43;15.10;99.90
6627;DHT22;3349;49.830;8.748;2022-10-16T07:08:10;15.20;99.90
6627;DHT22;3349;49.830;8.748;2022-10-16T07:10:37;15.20;99.90
6627;DHT22;3349;49.830;8.748;2022-10-16T07:13:04;15.30;99.90
6627;DHT22;3349;49.830;8.748;2022-10-16T07:15:32;15.40;99.90
6627;DHT22;3349;49.830;8.748;2022-10-16T07:17:59;15.40;99.90
6627;DHT22;3349;49.830;8.748;2022-10-16T07:20:26;15.50;99.90
6627;DHT22;3349;49.830;8.748;2022-10-16T07:22:54;15.60;99.90
6627;DHT22;3349;49.830;8.748;2022-10-16T07:25:21;15.60;99.90
6627;DHT22;3349;49.830;8.748;2022-10-16T07:27:48;15.70;99.90
6627;DHT22;3349;49.830;8.748;2022-10-16T07:30:15;15.70;99.90
6627;DHT22;3349;49.830;8.748;2022-10-16T07:32:41;15.80;99.90
6627;DHT22;3349;49.830;8.748;2022-10-16T07:35:08;15.80;99.90
6627;DHT22;3349;49.830;8.748;2022-10-16T07:37:35;15.90;99.90
6627;DHT22;3349;49.830;8.748;2022-10-16T07:40:04;15.90;99.90
6627;DHT22;3349;49.830;8.748;2022-10-16T07:42:31;16.00;99.90
6627;DHT22;3349;49.830;8.748;2022-10-16T07:44:58;16.00;99.90
6627;DHT22;3349;49.830;8.748;2022-10-16T07:47:24;16.10;99.90
6627;DHT22;3349;49.830;8.748;2022-10-16T07:49:51;16.20;99.90
6627;DHT22;3349;49.830;8.748;2022-10-16T07:52:18;16.20;99.90
6627;DHT22;3349;49.830;8.748;2022-10-16T07:54:45;16.30;99.90
6627;DHT22;3349;49.830;8.748;2022-10-16T07:57:13;16.30;99.90
6627;DHT22;3349;49.830;8.748;2022-10-16T07:59:44;16.30;99.90
6627;DHT22;3349;49.830;8.748;2022-10-16T08:02:11;16.30;99.90
6627;DHT22;3349;49.830;8.748;2022-10-16T08:04:37;16.30;99.90
6627;DHT22;3349;49.830;8.748;2022-10-16T08:07:04;16.30;99.90
6627;DHT22;3349;49.830;8.748;2022-10-16T08:09:32;16.40;99.90
6627;DHT22;3349;49.830;8.748;2022-10-16T08:11:59;16.40;99.90
6627;DHT22;3349;49.830;8.748;2022-10-16T08:14:27;16.50;99.90
6627;DHT22;3349;49.830;8.748;2022-10-16T08:16:54;16.60;99.90
6627;DHT22;3349;49.830;8.748;2022-10-16T08:19:20;16.70;99.90
6627;DHT22;3349;49.830;8.748;2022-10-16T08:21:47;16.80;99.90
6627;DHT22;3349;49.830;8.748;2022-10-16T08:24:14;16.90;99.90
6627;DHT22;3349;49.830;8.748;2022-10-16T08:26:40;16.90;99.90
6627;DHT22;3349;49.830;8.748;2022-10-16T08:29:07;16.90;99.90
6627;DHT22;3349;49.830;8.748;2022-10-16T08:31:36;17.00;99.90
6627;DHT22;3349;49.830;8.748;2022-10-16T08:34:03;16.90;99.90
6627;DHT22;3349;49.830;8.748;2022-10-16T08:36:30;16.90;99.90
6627;DHT22;3349;49.830;8.748;2022-10-16T08:38:56;16.90;99.90
6627;DHT22;3349;49.830;8.748;2022-10-16T08:41:36;16.80;99.90
6627;DHT22;3349;49.830;8.748;2022-10-16T08:44:35;16.70;98.10
6627;DHT22;3349;49.830;8.748;2022-10-16T08:47:13;16.60;99.90
6627;DHT22;3349;49.830;8.748;2022-10-16T08:49:52;16.50;99.90
6627;DHT22;3349;49.830;8.748;2022-10-16T08:52:21;16.40;99.90
6627;DHT22;3349;49.830;8.748;2022-10-16T08:54:51;16.30;99.90
6627;DHT22;3349;49.830;8.748;2022-10-16T08:57:21;16.20;99.90
6627;DHT22;3349;49.830;8.748;2022-10-16T08:59:48;16.10;99.90
6627;DHT22;3349;49.830;8.748;2022-10-16T09:02:24;16.00;99.90
6627;DHT22;3349;49.830;8.748;2022-10-16T09:07:58;15.90;99.90
6627;DHT22;3349;49.830;8.748;2022-10-16T09:10:38;15.90;99.90
6627;DHT22;3349;49.830;8.748;2022-10-16T09:13:17;15.80;99.90
6627;DHT22;3349;49.830;8.748;2022-10-16T09:15:51;15.80;99.90
6627;DHT22;3349;49.830;8.748;2022-10-16T09:18:26;15.80;99.90
6627;DHT22;3349;49.830;8.748;2022-10-16T09:21:01;15.80;99.90
6627;DHT22;3349;49.830;8.748;2022-10-16T09:23:32;15.90;99.90
6627;DHT22;3349;49.830;8.748;2022-10-16T09:26:01;15.90;99.90
6627;DHT22;3349;49.830;8.748;2022-10-16T09:28:29;16.00;99.90
6627;DHT22;3349;49.830;8.748;2022-10-16T09:30:55;16.20;99.90
6627;DHT22;3349;49.830;8.748;2022-10-16T09:33:27;16.20;99.90
6627;DHT22;3349;49.830;8.748;2022-10-16T09:35:56;16.30;99.90
6627;DHT22;3349;49.830;8.748;2022-10-16T09:38:26;16.50;99.90
6627;DHT22;3349;49.830;8.748;2022-10-16T09:40:54;16.70;99.90
6627;DHT22;3349;49.830;8.748;2022-10-16T09:43:24;16.90;99.90
6627;DHT22;3349;49.830;8.748;2022-10-16T09:45:54;17.10;99.90
6627;DHT22;3349;49.830;8.748;2022-10-16T09:48:21;17.00;99.90
6627;DHT22;3349;49.830;8.748;2022-10-16T09:50:57;17.20;99.90
6627;DHT22;3349;49.830;8.748;2022-10-16T09:53:36;17.40;99.90
6627;DHT22;3349;49.830;8.748;2022-10-16T09:56:04;17.80;99.90
6627;DHT22;3349;49.830;8.748;2022-10-16T09:58:32;17.80;99.90
6627;DHT22;3349;49.830;8.748;2022-10-16T10:01:00;17.70;99.90
6627;DHT22;3349;49.830;8.748;2022-10-16T10:03:38;17.60;99.90
6627;DHT22;3349;49.830;8.748;2022-10-16T10:06:17;17.50;99.90
6627;DHT22;3349;49.830;8.748;2022-10-16T10:08:56;17.80;99.90
6627;DHT22;3349;49.830;8.748;2022-10-16T10:11:42;17.80;99.90
6627;DHT22;3349;49.830;8.748;2022-10-16T10:14:17;18.00;99.90
6627;DHT22;3349;49.830;8.748;2022-10-16T10:16:45;18.10;99.90
6627;DHT22;3349;49.830;8.748;2022-10-16T10:19:17;18.40;99.90
6627;DHT22;3349;49.830;8.748;2022-10-16T10:21:45;18.60;99.90
6627;DHT22;3349;49.830;8.748;2022-10-16T10:24:13;18.90;99.90
6627;DHT22;3349;49.830;8.748;2022-10-16T10:26:48;19.30;99.90
6627;DHT22;3349;49.830;8.748;2022-10-16T10:29:23;19.60;99.90
6627;DHT22;3349;49.830;8.748;2022-10-16T10:31:55;19.60;99.90
6627;DHT22;3349;49.830;8.748;2022-10-16T10:34:44;19.50;96.80
6627;DHT22;3349;49.830;8.748;2022-10-16T10:37:31;19.80;98.50
6627;DHT22;3349;49.830;8.748;2022-10-16T10:40:09;20.50;98.30
6627;DHT22;3349;49.830;8.748;2022-10-16T10:42:44;20.60;91.20
6627;DHT22;3349;49.830;8.748;2022-10-16T10:45:20;20.60;96.60
6627;DHT22;3349;49.830;8.748;2022-10-16T10:47:59;21.60;98.60
6627;DHT22;3349;49.830;8.748;2022-10-16T10:50:35;21.90;94.60
6627;DHT22;3349;49.830;8.748;2022-10-16T10:53:12;22.40;79.10
6627;DHT22;3349;49.830;8.748;2022-10-16T10:55:47;24.20;62.70
6627;DHT22;3349;49.830;8.748;2022-10-16T10:58:25;26.20;55.90
6627;DHT22;3349;49.830;8.748;2022-10-16T11:01:01;26.50;50.10
6627;DHT22;3349;49.830;8.748;2022-10-16T11:03:59;27.50;44.90
6627;DHT22;3349;49.830;8.748;2022-10-16T11:06:31;28.10;46.40
6627;DHT22;3349;49.830;8.748;2022-10-16T11:09:06;27.70;46.60
6627;DHT22;3349;49.830;8.748;2022-10-16T11:11:41;27.40;44.80
6627;DHT22;3349;49.830;8.748;2022-10-16T11:14:16;27.80;49.90
6627;DHT22;3349;49.830;8.748;2022-10-16T11:16:49;28.40;46.50
6627;DHT22;3349;49.830;8.748;2022-10-16T11:19:25;29.00;45.90
6627;DHT22;3349;49.830;8.748;2022-10-16T11:21:59;29.20;45.10
6627;DHT22;3349;49.830;8.748;2022-10-16T11:24:37;29.70;46.80
6627;DHT22;3349;49.830;8.748;2022-10-16T11:27:09;31.00;46.50
6627;DHT22;3349;49.830;8.748;2022-10-16T11:29:45;31.10;45.70
6627;DHT22;3349;49.830;8.748;2022-10-16T11:32:21;31.90;44.50
6627;DHT22;3349;49.830;8.748;2022-10-16T11:34:51;32.60;42.00
6627;DHT22;3349;49.830;8.748;2022-10-16T11:37:20;33.20;40.90
6627;DHT22;3349;49.830;8.748;2022-10-16T11:39:52;32.10;40.20
6627;DHT22;3349;49.830;8.748;2022-10-16T11:42:26;31.10;42.30
6627;DHT22;3349;49.830;8.748;2022-10-16T11:45:00;30.50;43.00
6627;DHT22;3349;49.830;8.748;2022-10-16T11:47:34;29.80;46.00
6627;DHT22;3349;49.830;8.748;2022-10-16T11:50:04;28.10;48.00
6627;DHT22;3349;49.830;8.748;2022-10-16T11:52:38;26.70;51.00
6627;DHT22;3349;49.830;8.748;2022-10-16T11:55:15;25.60;55.20
6627;DHT22;3349;49.830;8.748;2022-10-16T11:57:47;24.40;60.70
6627;DHT22;3349;49.830;8.748;2022-10-16T12:00:20;23.50;65.30
6627;DHT22;3349;49.830;8.748;2022-10-16T12:02:58;22.90;72.10
6627;DHT22;3349;49.830;8.748;2022-10-16T12:05:32;22.70;75.00
6627;DHT22;3349;49.830;8.748;2022-10-16T12:08:06;22.80;77.20
6627;DHT22;3349;49.830;8.748;2022-10-16T12:10:36;23.70;74.60
6627;DHT22;3349;49.830;8.748;2022-10-16T12:13:04;24.80;65.60
6627;DHT22;3349;49.830;8.748;2022-10-16T12:15:33;25.70;61.30
6627;DHT22;3349;49.830;8.748;2022-10-16T12:18:00;26.30;57.50
6627;DHT22;3349;49.830;8.748;2022-10-16T12:20:29;26.40;56.40
6627;DHT22;3349;49.830;8.748;2022-10-16T12:22:59;25.50;57.00
6627;DHT22;3349;49.830;8.748;2022-10-16T12:25:28;24.70;59.70
6627;DHT22;3349;49.830;8.748;2022-10-16T12:28:00;23.90;62.20
6627;DHT22;3349;49.830;8.748;2022-10-16T12:30:30;23.20;66.30
6627;DHT22;3349;49.830;8.748;2022-10-16T12:32:58;23.00;68.90
6627;DHT22;3349;49.830;8.748;2022-10-16T12:35:29;22.80;71.80
6627;DHT22;3349;49.830;8.748;2022-10-16T12:38:06;22.20;75.00
6627;DHT22;3349;49.830;8.748;2022-10-16T12:40:35;22.10;79.80
6627;DHT22;3349;49.830;8.748;2022-10-16T12:43:25;22.30;81.00
6627;DHT22;3349;49.830;8.748;2022-10-16T12:46:03;22.30;79.00
6627;DHT22;3349;49.830;8.748;2022-10-16T12:48:30;22.30;79.00
6627;DHT22;3349;49.830;8.748;2022-10-16T12:50:57;22.20;80.90
6627;DHT22;3349;49.830;8.748;2022-10-16T12:53:35;22.10;81.80
6627;DHT22;3349;49.830;8.748;2022-10-16T12:56:08;22.10;80.80
6627;DHT22;3349;49.830;8.748;2022-10-16T12:58:55;22.00;83.30
6627;DHT22;3349;49.830;8.748;2022-10-16T13:01:53;22.00;83.90
6627;DHT22;3349;49.830;8.748;2022-10-16T13:04:43;22.10;81.80
6627;DHT22;3349;49.830;8.748;2022-10-16T13:07:27;22.00;84.20
6627;DHT22;3349;49.830;8.748;2022-10-16T13:10:06;21.80;85.30
6627;DHT22;3349;49.830;8.748;2022-10-16T13:13:13;21.80;86.10
6627;DHT22;3349;49.830;8.748;2022-10-16T13:15:54;21.60;90.10
6627;DHT22;3349;49.830;8.748;2022-10-16T13:18:28;21.30;91.30
6627;DHT22;3349;49.830;8.748;2022-10-16T13:21:07;21.10;92.50
6627;DHT22;3349;49.830;8.748;2022-10-16T13:23:44;21.10;93.80
6627;DHT22;3349;49.830;8.748;2022-10-16T13:26:21;21.00;95.50
6627;DHT22;3349;49.830;8.748;2022-10-16T13:28:50;20.90;95.60
6627;DHT22;3349;49.830;8.748;2022-10-16T13:31:21;20.90;95.80
6627;DHT22;3349;49.830;8.748;2022-10-16T13:33:50;20.80;95.60
6627;DHT22;3349;49.830;8.748;2022-10-16T13:36:22;20.70;96.60
6627;DHT22;3349;49.830;8.748;2022-10-16T13:39:00;20.50;98.10
6627;DHT22;3349;49.830;8.748;2022-10-16T13:41:31;20.40;99.30
6627;DHT22;3349;49.830;8.748;2022-10-16T13:43:57;20.30;99.90
6627;DHT22;3349;49.830;8.748;2022-10-16T13:46:26;20.20;99.90
6627;DHT22;3349;49.830;8.748;2022-10-16T13:48:59;20.00;99.90
6627;DHT22;3349;49.830;8.748;2022-10-16T13:51:27;19.80;99.90
6627;DHT22;3349;49.830;8.748;2022-10-16T13:53:55;19.80;99.90
6627;DHT22;3349;49.830;8.748;2022-10-16T13:56:27;19.70;99.90
6627;DHT22;3349;49.830;8.748;2022-10-16T13:59:00;19.60;99.90
6627;DHT22;3349;49.830;8.748;2022-10-16T14:01:30;19.50;99.90
6627;DHT22;3349;49.830;8.748;2022-10-16T14:04:02;19.40;99.90
6627;DHT22;3349;49.830;8.748;2022-10-16T14:06:34;19.30;99.90
6627;DHT22;3349;49.830;8.748;2022-10-16T14:09:06;19.30;99.90
6627;DHT22;3349;49.830;8.748;2022-10-16T14:11:36;19.20;99.90
6627;DHT22;3349;49.830;8.748;2022-10-16T14:14:05;19.20;99.90
6627;DHT22;3349;49.830;8.748;2022-10-16T14:16:33;19.20;99.90
6627;DHT22;3349;49.830;8.748;2022-10-16T14:19:02;19.10;99.90
6627;DHT22;3349;49.830;8.748;2022-10-16T14:21:32;19.10;99.90
6627;DHT22;3349;49.830;8.748;2022-10-16T14:23:59;19.20;99.90
6627;DHT22;3349;49.830;8.748;2022-10-16T14:26:27;19.20;99.90
6627;DHT22;3349;49.830;8.748;2022-10-16T14:29:12;19.20;99.90
6627;DHT22;3349;49.830;8.748;2022-10-16T14:31:41;19.30;99.90
6627;DHT22;3349;49.830;8.748;2022-10-16T14:34:25;19.30;99.90
6627;DHT22;3349;49.830;8.748;2022-10-16T14:36:53;19.30;99.90
6627;DHT22;3349;49.830;8.748;2022-10-16T14:39:21;19.30;99.90
6627;DHT22;3349;49.830;8.748;2022-10-16T14:41:50;19.30;99.90
6627;DHT22;3349;49.830;8.748;2022-10-16T14:44:18;19.30;99.90
6627;DHT22;3349;49.830;8.748;2022-10-16T14:46:46;19.30;99.90
6627;DHT22;3349;49.830;8.748;2022-10-16T14:49:16;19.30;99.90
6627;DHT22;3349;49.830;8.748;2022-10-16T14:51:43;19.20;99.90
6627;DHT22;3349;49.830;8.748;2022-10-16T14:54:11;19.20;99.90
6627;DHT22;3349;49.830;8.748;2022-10-16T14:56:45;19.20;99.90
6627;DHT22;3349;49.830;8.748;2022-10-16T14:59:15;19.20;99.90
6627;DHT22;3349;49.830;8.748;2022-10-16T15:01:43;19.20;99.90
6627;DHT22;3349;49.830;8.748;2022-10-16T15:04:12;19.20;99.90
6627;DHT22;3349;49.830;8.748;2022-10-16T15:06:39;19.20;99.90
6627;DHT22;3349;49.830;8.748;2022-10-16T15:09:06;19.20;99.90
6627;DHT22;3349;49.830;8.748;2022-10-16T15:11:33;19.10;99.90
6627;DHT22;3349;49.830;8.748;2022-10-16T15:14:00;19.10;99.90
6627;DHT22;3349;49.830;8.748;2022-10-16T15:16:29;19.10;99.90
6627;DHT22;3349;49.830;8.748;2022-10-16T15:18:55;19.10;99.90
6627;DHT22;3349;49.830;8.748;2022-10-16T15:21:25;19.10;99.90
6627;DHT22;3349;49.830;8.748;2022-10-16T15:23:52;19.10;99.90
6627;DHT22;3349;49.830;8.748;2022-10-16T15:26:19;19.10;99.90
6627;DHT22;3349;49.830;8.748;2022-10-16T15:28:46;19.20;99.90
6627;DHT22;3349;49.830;8.748;2022-10-16T15:31:12;19.10;99.90
6627;DHT22;3349;49.830;8.748;2022-10-16T15:33:39;19.10;99.90
6627;DHT22;3349;49.830;8.748;2022-10-16T15:36:06;19.10;99.90
6627;DHT22;3349;49.830;8.748;2022-10-16T15:38:34;19.00;99.90
6627;DHT22;3349;49.830;8.748;2022-10-16T15:41:01;19.00;99.90
6627;DHT22;3349;49.830;8.748;2022-10-16T15:43:28;19.00;99.90
6627;DHT22;3349;49.830;8.748;2022-10-16T15:45:59;18.90;99.90
6627;DHT22;3349;49.830;8.748;2022-10-16T15:48:28;18.80;99.90
6627;DHT22;3349;49.830;8.748;2022-10-16T15:50:54;18.80;99.90
6627;DHT22;3349;49.830;8.748;2022-10-16T15:53:21;18.70;99.90
6627;DHT22;3349;49.830;8.748;2022-10-16T15:55:49;18.70;99.90
6627;DHT22;3349;49.830;8.748;2022-10-16T15:58:16;18.60;99.90
6627;DHT22;3349;49.830;8.748;2022-10-16T16:00:43;18.50;99.90
6627;DHT22;3349;49.830;8.748;2022-10-16T16:03:09;18.40;99.90
6627;DHT22;3349;49.830;8.748;2022-10-16T16:05:38;18.30;99.90
6627;DHT22;3349;49.830;8.748;2022-10-16T16:08:04;18.20;99.90
6627;DHT22;3349;49.830;8.748;2022-10-16T16:10:31;18.10;99.90
6627;DHT22;3349;49.830;8.748;2022-10-16T16:12:59;17.90;99.90
6627;DHT22;3349;49.830;8.748;2022-10-16T16:15:26;17.80;99.90
6627;DHT22;3349;49.830;8.748;2022-10-16T16:17:52;17.70;99.90
6627;DHT22;3349;49.830;8.748;2022-10-16T16:20:19;17.60;99.90
6627;DHT22;3349;49.830;8.748;2022-10-16T16:22:46;17.60;99.90